Time;durP1;ratioP1;P1;durP2;ratioP2;P2;SDS_P1;SDS_P2;PMS_P1;PMS_P2;Temp;Humidity;BMP_temperature;BMP_pressure;BME280_temperature;BME280_humidity;BME280_pressure;Samples;Min_cycle;Max_cycle;Signal;HPM_P1;HPM_P2
2022/07/10 00:00:47;;;;;;;83.69;50.76;;;;;;;23.85;46.44;99766.59;457289;114;922716;-75
2022/07/10 00:01:50;;;;;;;77.57;49.08;;;;;;;23.84;46.55;99765.76;457329;116;922956;-75
2022/07/10 00:02:53;;;;;;;81.33;50.34;;;;;;;23.84;46.58;99762.16;457337;115;922619;-75
2022/07/10 00:03:56;;;;;;;89.52;51.60;;;;;;;23.83;46.64;99761.33;457325;116;922579;-75
2022/07/10 00:04:59;;;;;;;77.10;50.02;;;;;;;23.85;46.70;99766.59;457339;115;923127;-75
2022/07/10 00:06:02;;;;;;;77.17;51.73;;;;;;;23.84;46.73;99756.58;457360;114;922622;-75
2022/07/10 00:07:05;;;;;;;82.35;53.19;;;;;;;23.83;46.79;99766.89;454585;115;922549;-75
2022/07/10 00:08:09;;;;;;;81.38;53.64;;;;;;;23.84;46.89;99756.58;453577;117;923074;-75
2022/07/10 00:09:12;;;;;;;87.36;57.94;;;;;;;23.84;47.04;99759.37;453673;116;922911;-75
2022/07/10 00:10:18;;;;;;;92.92;58.93;;;;;;;23.83;47.02;99766.07;453488;117;922806;-75
2022/07/10 00:11:21;;;;;;;98.14;64.58;;;;;;;23.83;47.17;99764.11;453519;117;922579;-75
2022/07/10 00:12:24;;;;;;;112.32;70.33;;;;;;;23.83;47.13;99755.76;453624;117;930487;-75
2022/07/10 00:13:27;;;;;;;101.03;66.72;;;;;;;23.84;47.19;99756.58;453671;116;922957;-75
2022/07/10 00:14:30;;;;;;;113.59;70.16;;;;;;;23.85;47.19;99758.23;452303;117;922904;-75
2022/07/10 00:15:33;;;;;;;105.65;69.42;;;;;;;23.84;47.18;99754.63;449043;116;923067;-75
2022/07/10 00:16:36;;;;;;;116.97;75.72;;;;;;;23.84;47.21;99759.37;449134;118;922572;-75
2022/07/10 00:17:40;;;;;;;121.76;80.01;;;;;;;23.83;47.25;99752.98;449162;118;923474;-75
2022/07/10 00:18:43;;;;;;;129.97;80.87;;;;;;;23.82;47.35;99764.46;449105;118;922510;-75
2022/07/10 00:19:46;;;;;;;133.19;85.15;;;;;;;23.81;47.26;99751.67;449093;118;922578;-75
2022/07/10 00:20:49;;;;;;;139.37;86.72;;;;;;;23.80;47.28;99748.06;449108;116;923168;-75
2022/07/10 00:21:52;;;;;;;130.63;89.67;;;;;;;23.81;47.30;99755.28;449131;117;922596;-76
2022/07/10 00:22:55;;;;;;;130.59;85.72;;;;;;;23.80;47.31;99741.67;449118;117;922870;-75
2022/07/10 00:24:00;;;;;;;134.91;85.92;;;;;;;23.79;47.27;99743.64;448846;118;923067;-77
2022/07/10 00:25:05;;;;;;;126.69;86.14;;;;;;;23.80;47.26;99744.46;449095;117;922596;-75
2022/07/10 00:26:09;;;;;;;147.61;92.54;;;;;;;23.79;47.28;99746.42;448909;116;922585;-75
2022/07/10 00:27:11;;;;;;;144.39;94.13;;;;;;;23.79;47.20;99748.38;449032;117;923075;-75
2022/07/10 00:28:14;;;;;;;159.71;96.90;;;;;;;23.79;47.14;99740.03;449130;118;922677;-75
2022/07/10 00:29:17;;;;;;;142.64;93.62;;;;;;;23.76;47.15;99741.52;449073;117;922653;-75
2022/07/10 00:30:22;;;;;;;148.49;95.74;;;;;;;23.76;47.12;99741.52;452348;114;922680;-75
2022/07/10 00:31:25;;;;;;;148.14;94.70;;;;;;;23.76;47.13;99740.69;455050;116;930349;-75
2022/07/10 00:32:28;;;;;;;143.20;94.20;;;;;;;23.75;47.09;99745.44;455096;116;922905;-75
2022/07/10 00:33:32;;;;;;;143.59;90.99;;;;;;;23.75;47.07;99753.78;455130;116;923040;-75
2022/07/10 00:34:35;;;;;;;143.99;93.84;;;;;;;23.73;47.02;99736.58;457231;116;922683;-75
2022/07/10 00:35:38;;;;;;;149.17;97.16;;;;;;;23.73;47.02;99738.53;457085;114;930636;-75
2022/07/10 00:36:42;;;;;;;151.94;95.41;;;;;;;23.72;46.98;99745.23;457290;116;922668;-76
2022/07/10 00:37:45;;;;;;;147.41;96.56;;;;;;;23.72;46.95;99742.45;457222;116;922594;-75
2022/07/10 00:38:48;;;;;;;150.60;98.77;;;;;;;23.71;46.96;99740.84;457236;116;930531;-75
2022/07/10 00:39:51;;;;;;;158.52;101.79;;;;;;;23.70;46.96;99742.80;457318;115;922711;-76
2022/07/10 00:40:54;;;;;;;152.36;97.64;;;;;;;23.69;46.97;99743.94;457258;114;922706;-75
2022/07/10 00:42:11;;;;;;;156.64;102.94;;;;;;;23.68;46.92;99734.77;457283;116;922553;-75
2022/07/10 00:43:14;;;;;;;146.12;98.36;;;;;;;23.69;46.93;99743.94;457085;116;922613;-75
2022/07/10 00:44:17;;;;;;;146.94;97.76;;;;;;;23.67;46.92;99738.68;457307;116;922521;-75
2022/07/10 00:45:20;;;;;;;146.46;97.77;;;;;;;23.66;46.90;99742.60;457220;114;923369;-75
2022/07/10 00:46:26;;;;;;;157.27;100.36;;;;;;;23.65;46.91;99743.73;457243;115;922538;-74
2022/07/10 00:47:29;;;;;;;151.42;101.37;;;;;;;23.64;46.97;99747.69;456827;115;922568;-76
2022/07/10 00:48:32;;;;;;;162.57;101.56;;;;;;;23.62;46.94;99738.00;457272;116;922527;-76
2022/07/10 00:49:38;;;;;;;150.74;98.37;;;;;;;23.62;46.94;99746.36;457319;116;922912;-76
2022/07/10 00:50:44;;;;;;;151.98;99.58;;;;;;;23.60;46.93;99743.88;457051;114;922657;-76
2022/07/10 00:51:47;;;;;;;155.52;100.73;;;;;;;23.59;46.91;99733.09;457087;116;922704;-76
2022/07/10 00:52:50;;;;;;;148.35;97.12;;;;;;;23.58;46.85;99734.23;457299;116;923010;-76
2022/07/10 00:53:53;;;;;;;150.82;99.39;;;;;;;23.56;46.85;99740.11;457307;115;922537;-76
2022/07/10 00:54:57;;;;;;;156.51;98.21;;;;;;;23.56;46.86;99742.89;457312;115;922516;-75
2022/07/10 00:56:00;;;;;;;150.99;100.78;;;;;;;23.54;46.91;99736.02;457225;114;923051;-76
2022/07/10 00:57:07;;;;;;;156.33;102.35;;;;;;;23.53;46.82;99740.77;457346;115;923607;-76
2022/07/10 00:58:12;;;;;;;150.61;98.93;;;;;;;23.52;46.83;99727.17;457127;116;922555;-75
2022/07/10 00:59:15;;;;;;;142.19;97.98;;;;;;;23.51;46.79;99733.87;457257;115;922613;-76
2022/07/10 01:00:19;;;;;;;151.66;99.59;;;;;;;23.51;46.79;99737.47;455408;114;922606;-76
2022/07/10 01:01:22;;;;;;;145.67;97.50;;;;;;;23.49;46.76;99738.92;456761;116;923451;-76
2022/07/10 01:02:26;;;;;;;155.56;99.74;;;;;;;23.48;46.82;99734.52;457244;115;922516;-76
2022/07/10 01:03:29;;;;;;;150.27;96.25;;;;;;;23.46;46.80;99732.05;457262;115;930557;-76
2022/07/10 01:04:33;;;;;;;148.57;97.44;;;;;;;23.46;46.85;99728.45;457400;115;922618;-73
2022/07/10 01:05:37;;;;;;;160.27;99.81;;;;;;;23.45;46.87;99733.16;457188;114;922576;-74
2022/07/10 01:06:40;;;;;;;153.87;99.99;;;;;;;23.45;46.79;99722.03;458249;115;923589;-74
2022/07/10 01:07:43;;;;;;;156.49;103.79;;;;;;;23.46;46.75;99728.45;460298;115;922584;-76
2022/07/10 01:08:46;;;;;;;154.42;99.29;;;;;;;23.45;46.67;99726.77;460301;115;922562;-75
2022/07/10 01:09:49;;;;;;;150.21;101.30;;;;;;;23.47;46.60;99724.53;460291;115;922516;-75
2022/07/10 01:10:53;;;;;;;166.46;105.79;;;;;;;23.47;46.52;99724.53;460162;115;923056;-75
2022/07/10 01:11:58;;;;;;;162.48;103.69;;;;;;;23.47;46.44;99721.75;460337;115;922681;-75
2022/07/10 01:13:02;;;;;;;157.24;104.40;;;;;;;23.48;46.32;99724.22;460120;115;922538;-75
2022/07/10 01:14:06;;;;;;;163.15;103.15;;;;;;;23.49;46.23;99719.44;460222;115;922680;-75
2022/07/10 01:15:09;;;;;;;158.54;104.74;;;;;;;23.49;46.14;99723.05;455397;115;922537;-75
2022/07/10 01:16:12;;;;;;;153.27;100.56;;;;;;;23.50;46.15;99716.34;455169;116;922704;-75
2022/07/10 01:17:17;;;;;;;155.59;106.42;;;;;;;23.50;46.05;99719.13;455071;116;930233;-75
2022/07/10 01:18:20;;;;;;;165.08;105.59;;;;;;;23.50;46.12;99719.13;455031;116;930564;-75
2022/07/10 01:19:23;;;;;;;170.45;108.19;;;;;;;23.52;45.99;99716.86;455210;116;922704;-75
2022/07/10 01:20:35;;;;;;;163.90;108.17;;;;;;;23.51;45.88;99714.39;455150;116;922634;-75
2022/07/10 01:21:37;;;;;;;173.27;110.61;;;;;;;23.49;45.79;99717.48;454121;116;923124;-75
2022/07/10 01:22:40;;;;;;;173.89;111.48;;;;;;;23.46;45.74;99712.58;455139;116;923736;-75
2022/07/10 01:23:43;;;;;;;166.84;110.82;;;;;;;23.45;45.76;99712.86;455174;116;922907;-74
2022/07/10 01:24:46;;;;;;;166.05;111.17;;;;;;;23.43;45.64;99707.60;455201;116;922920;-75
2022/07/10 01:25:50;;;;;;;168.52;108.38;;;;;;;23.43;45.69;99706.81;455238;116;922635;-75
2022/07/10 01:26:53;;;;;;;161.52;107.11;;;;;;;23.43;45.67;99710.39;455106;116;922567;-75
2022/07/10 01:27:56;;;;;;;165.28;106.84;;;;;;;23.42;45.73;99717.12;455137;116;930484;-75
2022/07/10 01:29:07;;;;;;;159.46;103.93;;;;;;;23.44;45.80;99712.03;455252;116;922562;-75
2022/07/10 01:30:11;;;;;;;160.91;103.93;;;;;;;23.45;45.87;99715.64;454934;116;922607;-75
2022/07/10 01:31:14;;;;;;;169.57;108.56;;;;;;;23.45;45.76;99704.52;455321;114;922568;-75
2022/07/10 01:32:17;;;;;;;169.89;106.79;;;;;;;23.44;45.74;99708.43;455347;116;922550;-75
2022/07/10 01:33:20;;;;;;;158.84;106.03;;;;;;;23.43;45.72;99701.25;455371;116;923350;-75
2022/07/10 01:34:23;;;;;;;152.62;102.05;;;;;;;23.41;45.76;99709.91;457064;114;923088;-75
2022/07/10 01:35:26;;;;;;;152.04;101.49;;;;;;;23.39;45.86;99712.18;457378;116;922585;-75
2022/07/10 01:36:29;;;;;;;163.63;104.11;;;;;;;23.38;45.99;99707.75;457386;115;923122;-75
2022/07/10 01:37:32;;;;;;;166.80;105.32;;;;;;;23.38;46.04;99706.92;457350;115;922565;-75
2022/07/10 01:38:35;;;;;;;159.51;102.92;;;;;;;23.36;46.01;99701.70;457390;115;922566;-75
2022/07/10 01:39:39;;;;;;;167.69;107.57;;;;;;;23.36;45.99;99698.10;450791;115;922494;-75
2022/07/10 01:40:42;;;;;;;153.72;103.85;;;;;;;23.35;45.72;99697.28;445251;119;922963;-75
2022/07/10 01:41:45;;;;;;;158.57;102.83;;;;;;;23.36;45.77;99696.14;438989;121;922622;-75
2022/07/10 01:42:48;;;;;;;157.93;102.90;;;;;;;23.36;45.76;99701.70;431406;123;922872;-75
2022/07/10 01:43:51;;;;;;;164.43;101.54;;;;;;;23.36;45.81;99698.10;431428;123;922600;-75
2022/07/10 01:44:54;;;;;;;151.98;99.69;;;;;;;23.35;45.85;99694.50;431420;123;922654;-75
2022/07/10 01:45:57;;;;;;;159.62;102.54;;;;;;;23.35;45.91;99688.94;431411;121;922587;-75
2022/07/10 01:47:01;;;;;;;154.29;101.71;;;;;;;23.36;46.00;99692.53;431417;123;922617;-75
2022/07/10 01:48:04;;;;;;;155.85;99.09;;;;;;;23.37;46.03;99686.66;431429;123;923217;-76
2022/07/10 01:49:07;;;;;;;164.55;103.39;;;;;;;23.37;45.83;99689.44;431408;123;922717;-75
2022/07/10 01:50:11;;;;;;;154.74;100.07;;;;;;;23.38;45.78;99688.27;431297;123;923101;-75
2022/07/10 01:51:14;;;;;;;158.06;100.64;;;;;;;23.39;45.73;99684.36;438934;121;922585;-75
2022/07/10 01:52:17;;;;;;;152.04;100.45;;;;;;;23.40;45.70;99697.13;438990;121;922500;-75
2022/07/10 01:53:20;;;;;;;154.54;97.53;;;;;;;23.42;45.63;99688.47;439022;121;922631;-75
2022/07/10 01:54:23;;;;;;;157.98;98.01;;;;;;;23.43;45.59;99690.91;439030;121;922529;-75
2022/07/10 01:55:26;;;;;;;146.07;95.17;;;;;;;23.43;45.53;99685.34;430727;123;923030;-75
2022/07/10 01:56:29;;;;;;;148.35;96.75;;;;;;;23.43;45.47;99688.13;439030;121;923044;-75
2022/07/10 01:57:33;;;;;;;136.34;92.97;;;;;;;23.43;45.40;99688.13;431453;123;922618;-75
2022/07/10 01:58:36;;;;;;;145.47;94.44;;;;;;;23.45;45.39;99693.38;431362;123;922576;-75
2022/07/10 01:59:40;;;;;;;151.86;94.34;;;;;;;23.46;45.27;99690.31;431383;123;922663;-76
2022/07/10 02:00:44;;;;;;;149.72;88.70;;;;;;;23.47;45.12;99691.97;431280;121;922611;-76
2022/07/10 02:01:48;;;;;;;146.26;91.31;;;;;;;23.49;44.78;99697.19;431240;123;930931;-76
2022/07/10 02:05:35;;;;;;;143.95;87.93;;;;;;;23.56;43.91;99694.77;447428;116;922551;-76
2022/07/10 02:06:38;;;;;;;142.36;88.20;;;;;;;23.57;43.79;99691.66;437326;120;922695;-76
2022/07/10 02:07:41;;;;;;;141.97;88.43;;;;;;;23.59;43.65;99691.35;440550;118;930556;-76
2022/07/10 02:08:44;;;;;;;145.93;92.14;;;;;;;23.61;43.50;99689.05;448888;118;922608;-76
2022/07/10 02:09:47;;;;;;;149.52;90.52;;;;;;;23.62;43.20;99691.52;448883;118;922595;-76
2022/07/10 02:10:50;;;;;;;143.29;87.35;;;;;;;23.64;43.00;99696.77;448748;116;923275;-75
2022/07/10 02:11:53;;;;;;;150.91;90.34;;;;;;;23.66;42.88;99700.85;448898;118;922538;-75
2022/07/10 02:12:56;;;;;;;151.54;90.88;;;;;;;23.68;42.75;99694.97;448886;118;922683;-76
2022/07/10 02:14:00;;;;;;;143.73;89.10;;;;;;;23.70;42.61;99695.48;448895;118;922642;-76
2022/07/10 02:15:03;;;;;;;155.04;97.60;;;;;;;23.73;42.47;99689.25;457475;115;922598;-76
2022/07/10 02:16:07;;;;;;;153.05;91.19;;;;;;;23.74;42.24;99690.08;458705;113;922513;-75
2022/07/10 02:17:11;;;;;;;146.46;91.47;;;;;;;23.77;42.20;99692.20;458756;115;930321;-75
2022/07/10 02:18:14;;;;;;;143.09;92.03;;;;;;;23.79;42.15;99692.70;458737;115;923086;-76
2022/07/10 02:19:17;;;;;;;156.12;93.98;;;;;;;23.81;42.10;99691.25;458843;115;922586;-75
2022/07/10 02:20:22;;;;;;;147.06;93.74;;;;;;;23.83;42.07;99697.30;458222;113;922895;-75
2022/07/10 02:21:25;;;;;;;152.41;92.79;;;;;;;23.86;41.90;99701.41;458838;115;922571;-75
2022/07/10 02:22:28;;;;;;;150.72;95.18;;;;;;;23.89;41.78;99693.22;458817;115;922653;-76
2022/07/10 02:23:31;;;;;;;160.09;99.13;;;;;;;23.92;41.68;99695.38;458843;115;922558;-75
2022/07/10 02:24:34;;;;;;;154.28;95.89;;;;;;;23.94;41.61;99689.45;458864;115;922577;-75
2022/07/10 02:25:37;;;;;;;160.06;97.68;;;;;;;23.97;41.56;99686.04;458783;113;923235;-75
2022/07/10 02:26:40;;;;;;;155.18;94.21;;;;;;;23.97;41.48;99683.25;458841;115;922995;-77
2022/07/10 02:27:43;;;;;;;160.04;98.50;;;;;;;24.00;41.49;99685.38;458858;115;922534;-76
2022/07/10 02:28:46;;;;;;;167.63;103.36;;;;;;;24.02;41.28;99688.66;458844;115;922638;-76
2022/07/10 02:29:49;;;;;;;169.28;102.41;;;;;;;24.03;41.12;99687.52;454182;115;922653;-76
2022/07/10 02:30:53;;;;;;;170.29;105.09;;;;;;;24.04;40.94;99683.56;450053;115;923118;-76
2022/07/10 02:31:56;;;;;;;169.48;105.36;;;;;;;24.05;40.76;99674.07;450305;117;922618;-76
2022/07/10 02:32:59;;;;;;;174.96;107.79;;;;;;;24.08;40.58;99671.48;450244;117;930293;-76
2022/07/10 02:34:02;;;;;;;174.27;106.37;;;;;;;24.09;40.38;99677.88;454336;115;922667;-76
2022/07/10 02:35:06;;;;;;;178.27;109.32;;;;;;;24.11;40.24;99672.77;458787;115;922806;-76
2022/07/10 02:36:09;;;;;;;173.38;110.40;;;;;;;24.11;40.13;99687.52;450832;115;923033;-76
2022/07/10 02:37:12;;;;;;;173.67;110.07;;;;;;;24.14;40.00;99679.67;450307;117;930470;-77
2022/07/10 02:38:15;;;;;;;180.46;113.07;;;;;;;24.15;39.88;99679.32;450368;117;922816;-75
2022/07/10 02:39:18;;;;;;;185.37;112.42;;;;;;;24.15;39.83;99679.32;450405;117;922680;-76
2022/07/10 02:40:23;;;;;;;180.36;114.08;;;;;;;24.16;39.64;99675.39;450200;117;922550;-76
2022/07/10 02:41:26;;;;;;;187.12;115.21;;;;;;;24.17;39.60;99682.61;450377;117;923238;-77
2022/07/10 02:42:30;;;;;;;179.23;113.19;;;;;;;24.19;39.53;99671.18;450400;117;922905;-76
2022/07/10 02:43:33;;;;;;;182.94;113.29;;;;;;;24.18;39.42;99667.58;450300;117;922572;-77
2022/07/10 02:44:36;;;;;;;178.97;110.01;;;;;;;24.20;39.30;99665.30;450338;117;930575;-76
2022/07/10 02:45:39;;;;;;;178.06;108.92;;;;;;;24.20;39.17;99665.30;450398;115;923546;-76
2022/07/10 02:46:44;;;;;;;177.49;109.37;;;;;;;24.21;39.01;99666.91;444993;119;922689;-76
2022/07/10 02:47:47;;;;;;;181.44;111.50;;;;;;;24.22;38.90;99662.16;446613;118;922907;-76
2022/07/10 02:48:50;;;;;;;180.39;111.56;;;;;;;24.23;38.83;99659.05;446619;118;922696;-76
2022/07/10 02:49:53;;;;;;;177.60;110.69;;;;;;;24.24;38.81;99652.34;446599;118;922627;-77
2022/07/10 02:50:56;;;;;;;172.27;110.28;;;;;;;24.26;38.70;99657.59;446529;116;922635;-77
2022/07/10 02:52:00;;;;;;;172.71;106.63;;;;;;;24.25;38.81;99651.20;445784;118;922573;-75
2022/07/10 02:53:03;;;;;;;159.12;101.07;;;;;;;24.27;38.73;99651.67;445720;119;922538;-75
2022/07/10 02:54:07;;;;;;;171.94;103.99;;;;;;;24.30;38.71;99650.20;445710;119;922941;-75
2022/07/10 02:55:10;;;;;;;159.84;99.99;;;;;;;24.30;38.64;99651.03;445644;119;922977;-75
2022/07/10 02:56:14;;;;;;;154.72;98.52;;;;;;;24.32;38.59;99647.89;445602;117;922597;-75
2022/07/10 02:57:17;;;;;;;162.32;100.46;;;;;;;24.34;38.52;99648.39;446565;118;930447;-75
2022/07/10 02:58:20;;;;;;;147.26;94.27;;;;;;;24.36;38.46;99657.26;446633;118;922555;-75
2022/07/10 02:59:23;;;;;;;146.46;89.34;;;;;;;24.37;38.35;99656.08;446587;118;922758;-75
2022/07/10 03:00:27;;;;;;;138.72;90.84;;;;;;;24.38;38.24;99660.52;445697;117;923044;-76
2022/07/10 03:01:30;;;;;;;153.94;93.78;;;;;;;24.40;38.20;99652.66;445625;119;922697;-75
2022/07/10 03:02:34;;;;;;;144.92;91.17;;;;;;;24.41;38.19;99657.09;445699;119;923399;-75
2022/07/10 03:03:37;;;;;;;138.29;85.01;;;;;;;24.41;38.20;99649.55;445989;118;923046;-76
2022/07/10 03:04:40;;;;;;;138.16;88.01;;;;;;;24.42;38.17;99642.80;446077;118;922614;-75
2022/07/10 03:05:44;;;;;;;135.47;86.40;;;;;;;24.42;38.18;99651.16;446090;117;922581;-74
2022/07/10 03:06:47;;;;;;;134.29;82.60;;;;;;;24.43;38.16;99650.02;444318;118;922595;-75
2022/07/10 03:07:50;;;;;;;140.28;84.47;;;;;;;24.45;38.08;99656.09;453697;117;922561;-75
2022/07/10 03:08:53;;;;;;;133.55;83.47;;;;;;;24.47;38.08;99655.77;453666;117;922975;-75
2022/07/10 03:09:56;;;;;;;131.09;80.23;;;;;;;24.46;38.16;99657.73;453627;117;922646;-75
2022/07/10 03:11:00;;;;;;;125.92;78.78;;;;;;;24.48;38.23;99660.99;453589;115;922692;-75
2022/07/10 03:12:03;;;;;;;126.55;78.69;;;;;;;24.49;38.11;99650.67;453642;117;922477;-75
2022/07/10 03:13:07;;;;;;;129.81;80.56;;;;;;;24.50;38.16;99647.56;453542;117;923045;-75
2022/07/10 03:14:10;;;;;;;125.67;78.18;;;;;;;24.53;38.19;99653.64;453634;117;922593;-75
2022/07/10 03:15:14;;;;;;;129.40;75.75;;;;;;;24.56;38.26;99655.75;453734;117;923069;-75
2022/07/10 03:16:17;;;;;;;123.86;74.31;;;;;;;24.57;38.13;99649.86;453523;117;922523;-75
2022/07/10 03:17:20;;;;;;;126.28;74.18;;;;;;;24.59;38.17;99655.11;453681;117;922970;-76
2022/07/10 03:18:23;;;;;;;120.44;75.71;;;;;;;24.61;38.15;99652.79;453679;117;923096;-75
2022/07/10 03:19:26;;;;;;;125.99;75.79;;;;;;;24.61;38.13;99639.67;453671;117;922958;-75
2022/07/10 03:20:29;;;;;;;119.18;72.53;;;;;;;24.62;38.09;99644.11;453633;117;922855;-75
2022/07/10 03:21:32;;;;;;;121.69;74.02;;;;;;;24.64;38.06;99643.78;453667;117;923072;-76
2022/07/10 03:22:36;;;;;;;120.11;71.02;;;;;;;24.65;38.00;99645.39;453665;117;922578;-75
2022/07/10 03:23:41;;;;;;;118.57;72.39;;;;;;;24.66;38.00;99638.67;453676;117;922490;-76
2022/07/10 03:24:46;;;;;;;123.46;72.22;;;;;;;24.67;38.14;99645.89;453513;117;922596;-76
2022/07/10 03:25:49;;;;;;;112.28;70.17;;;;;;;24.66;38.39;99639.50;453537;115;922704;-76
2022/07/10 03:26:54;;;;;;;112.96;66.77;;;;;;;24.68;38.51;99642.78;453329;117;923207;-76
2022/07/10 03:27:57;;;;;;;99.37;62.88;;;;;;;24.69;38.46;99638.85;453717;117;922772;-76
2022/07/10 03:29:00;;;;;;;106.15;61.29;;;;;;;24.71;38.42;99636.53;453680;117;922615;-76
2022/07/10 03:30:04;;;;;;;103.16;59.08;;;;;;;24.73;38.29;99641.78;455886;115;922963;-76
2022/07/10 03:31:07;;;;;;;101.98;57.96;;;;;;;24.74;38.21;99651.80;455027;114;924180;-76
2022/07/10 03:32:10;;;;;;;95.47;55.27;;;;;;;24.75;38.17;99656.22;456462;116;930334;-76
2022/07/10 03:33:13;;;;;;;91.16;54.31;;;;;;;24.76;38.09;99649.47;457288;116;922665;-76
2022/07/10 03:34:16;;;;;;;95.17;55.96;;;;;;;24.78;38.01;99648.01;457336;113;922744;-77
2022/07/10 03:35:19;;;;;;;101.58;57.04;;;;;;;24.79;38.08;99649.65;457276;114;922596;-75
2022/07/10 03:36:24;;;;;;;93.09;55.36;;;;;;;24.82;38.14;99650.94;456902;115;922583;-74
2022/07/10 03:37:27;;;;;;;88.35;53.14;;;;;;;24.84;38.25;99657.02;457304;116;922789;-74
2022/07/10 03:38:30;;;;;;;91.39;51.53;;;;;;;24.86;38.25;99655.55;457333;116;922614;-75
2022/07/10 03:39:33;;;;;;;91.78;50.41;;;;;;;24.89;38.15;99660.48;457329;115;922580;-75
2022/07/10 03:40:36;;;;;;;80.31;45.81;;;;;;;24.92;38.03;99665.37;457320;116;922615;-75
2022/07/10 03:41:40;;;;;;;84.58;46.21;;;;;;;24.94;37.90;99670.63;457355;115;923080;-75
2022/07/10 03:42:43;;;;;;;81.50;47.98;;;;;;;24.98;37.84;99662.41;457397;116;922972;-76
2022/07/10 03:43:46;;;;;;;92.76;47.66;;;;;;;24.99;37.83;99659.30;457376;116;922685;-75
2022/07/10 03:44:49;;;;;;;78.28;45.19;;;;;;;25.02;37.85;99661.44;457346;115;922495;-75
2022/07/10 03:45:52;;;;;;;76.71;44.85;;;;;;;25.03;37.84;99663.05;457395;116;922964;-75
2022/07/10 03:46:55;;;;;;;85.19;45.85;;;;;;;25.05;37.81;99657.97;457395;115;922881;-75
2022/07/10 03:47:58;;;;;;;78.96;45.19;;;;;;;25.08;37.81;99664.86;457403;115;922595;-75
2022/07/10 03:49:01;;;;;;;77.08;44.72;;;;;;;25.09;37.77;99675.66;457368;116;922618;-75
2022/07/10 03:50:05;;;;;;;76.05;45.88;;;;;;;25.11;37.73;99664.19;457377;115;923101;-75
2022/07/10 03:51:08;;;;;;;80.71;45.97;;;;;;;25.13;37.78;99667.47;457394;114;922891;-75
2022/07/10 03:52:11;;;;;;;85.99;45.76;;;;;;;25.15;37.94;99668.75;457354;116;923024;-74
2022/07/10 03:53:14;;;;;;;76.17;43.42;;;;;;;25.17;38.09;99669.25;457372;115;922993;-74
2022/07/10 03:54:17;;;;;;;77.03;43.82;;;;;;;25.18;38.10;99678.44;457330;115;922999;-74
2022/07/10 03:55:20;;;;;;;82.51;44.52;;;;;;;25.19;37.81;99680.09;457335;114;923105;-74
2022/07/10 03:57:54;;;;;;;80.21;45.07;;;;;;;25.22;37.45;99663.48;457115;116;922617;-75
2022/07/10 03:58:57;;;;;;;84.94;46.74;;;;;;;25.24;37.39;99663.98;457102;116;922626;-75
2022/07/10 04:00:00;;;;;;;75.03;44.08;;;;;;;25.27;37.18;99670.84;457302;115;922642;-75
2022/07/10 04:01:03;;;;;;;87.49;46.56;;;;;;;25.28;37.05;99661.33;457278;114;922621;-75
2022/07/10 04:02:06;;;;;;;77.16;45.31;;;;;;;25.30;36.95;99670.20;457330;115;922631;-76
2022/07/10 04:03:10;;;;;;;83.17;45.22;;;;;;;25.32;36.87;99674.27;457333;115;922596;-75
2022/07/10 04:04:13;;;;;;;76.49;45.92;;;;;;;25.36;36.91;99668.04;457304;116;922637;-75
2022/07/10 04:05:16;;;;;;;80.11;45.11;;;;;;;25.37;36.84;99664.89;457303;116;923042;-75
2022/07/10 04:06:19;;;;;;;77.61;45.47;;;;;;;25.39;36.89;99673.76;457361;115;923258;-75
2022/07/10 04:07:22;;;;;;;80.61;46.21;;;;;;;25.42;36.96;99677.83;454074;117;922594;-75
2022/07/10 04:08:25;;;;;;;78.96;45.71;;;;;;;25.45;36.82;99678.00;454123;117;922752;-75
2022/07/10 04:09:28;;;;;;;80.42;43.39;;;;;;;25.48;36.83;99670.91;454119;117;922557;-74
2022/07/10 04:10:32;;;;;;;78.47;43.98;;;;;;;25.49;36.89;99667.80;454089;116;922541;-74
2022/07/10 04:11:35;;;;;;;69.08;43.35;;;;;;;25.53;36.88;99670.72;453942;116;922611;-75
2022/07/10 04:12:38;;;;;;;81.02;44.06;;;;;;;25.53;37.06;99668.75;454019;117;930766;-74
2022/07/10 04:13:41;;;;;;;82.24;46.03;;;;;;;25.55;37.14;99668.42;454059;117;922718;-74
2022/07/10 04:14:44;;;;;;;73.91;41.98;;;;;;;25.57;37.25;99671.74;455634;116;922691;-75
2022/07/10 04:15:48;;;;;;;75.33;41.64;;;;;;;25.58;37.25;99667.80;457053;116;922966;-75
2022/07/10 04:16:51;;;;;;;77.97;42.35;;;;;;;25.60;37.33;99662.68;456977;116;930580;-74
2022/07/10 04:17:54;;;;;;;82.04;42.79;;;;;;;25.62;37.51;99658.41;457170;116;922744;-75
2022/07/10 04:18:57;;;;;;;73.22;42.29;;;;;;;25.63;37.64;99665.63;457176;116;922688;-75
2022/07/10 04:20:01;;;;;;;71.79;41.74;;;;;;;25.65;37.71;99665.27;457194;116;922662;-74
2022/07/10 04:21:04;;;;;;;69.77;40.69;;;;;;;25.64;37.87;99653.28;457144;114;922594;-74
2022/07/10 04:22:07;;;;;;;71.51;42.18;;;;;;;25.68;37.90;99661.83;457037;116;922714;-75
2022/07/10 04:23:10;;;;;;;64.11;39.51;;;;;;;25.68;38.06;99670.20;457192;116;922666;-75
2022/07/10 04:24:13;;;;;;;73.54;38.99;;;;;;;25.70;38.08;99670.66;457163;116;922633;-75
2022/07/10 04:25:16;;;;;;;62.29;38.28;;;;;;;25.72;38.08;99671.16;457126;116;922659;-75
2022/07/10 04:26:19;;;;;;;70.17;38.58;;;;;;;25.74;38.08;99663.27;457092;116;922604;-75
2022/07/10 04:27:22;;;;;;;60.16;37.15;;;;;;;25.77;37.99;99670.14;447686;118;922677;-75
2022/07/10 04:28:25;;;;;;;62.83;37.18;;;;;;;25.79;38.01;99671.45;449728;116;923081;-75
2022/07/10 04:29:29;;;;;;;66.16;37.92;;;;;;;25.82;38.03;99670.77;456682;115;922846;-74
2022/07/10 04:30:32;;;;;;;59.33;36.34;;;;;;;25.84;38.04;99674.05;454391;116;922625;-75
2022/07/10 04:31:35;;;;;;;64.56;36.47;;;;;;;25.86;38.06;99663.34;455252;116;922689;-75
2022/07/10 04:32:38;;;;;;;67.07;36.84;;;;;;;25.89;38.05;99670.23;455214;116;922709;-75
2022/07/10 04:33:41;;;;;;;67.37;35.49;;;;;;;25.91;38.04;99662.34;455475;114;922637;-75
2022/07/10 04:34:44;;;;;;;69.95;36.71;;;;;;;25.92;38.24;99667.57;457347;115;922627;-75
2022/07/10 04:35:47;;;;;;;69.82;37.05;;;;;;;25.92;38.45;99667.57;457323;116;922858;-75
2022/07/10 04:36:50;;;;;;;59.94;36.49;;;;;;;25.91;38.43;99668.75;457300;115;923160;-75
2022/07/10 04:37:53;;;;;;;62.38;35.68;;;;;;;25.90;38.60;99672.70;457344;116;922856;-75
2022/07/10 04:38:56;;;;;;;53.34;34.16;;;;;;;25.90;38.77;99683.87;457353;115;922817;-75
2022/07/10 04:39:59;;;;;;;62.09;36.33;;;;;;;25.89;39.07;99678.61;457385;115;922871;-75
2022/07/10 04:41:02;;;;;;;57.55;35.16;;;;;;;25.89;39.16;99686.99;457330;114;922627;-75
2022/07/10 04:42:06;;;;;;;56.71;33.52;;;;;;;25.89;39.15;99684.20;457201;115;923183;-75
2022/07/10 04:43:12;;;;;;;53.44;32.22;;;;;;;25.88;39.04;99680.58;457220;116;930637;-75
2022/07/10 04:44:16;;;;;;;62.51;33.71;;;;;;;25.89;38.75;99686.99;457147;116;922606;-75
2022/07/10 04:45:19;;;;;;;60.01;33.39;;;;;;;25.88;38.54;99679.77;457268;115;922582;-75
2022/07/10 04:46:22;;;;;;;64.29;34.41;;;;;;;25.89;38.34;99682.23;457267;116;930478;-75
2022/07/10 04:47:26;;;;;;;65.42;34.14;;;;;;;25.89;38.17;99676.64;457325;116;923349;-75
2022/07/10 04:48:29;;;;;;;60.67;34.08;;;;;;;25.89;38.04;99679.44;457330;116;923177;-75
2022/07/10 04:49:32;;;;;;;64.09;33.26;;;;;;;25.89;37.96;99673.84;457355;115;922581;-75